Portada
METAR-TAF:

METAR-TAF

Aeropuertos :

Mécheria, Argelia

latitud: 34-56N, longitud: 000-26W, altitud: 1149 m

Observación

El informe se hizo hace 1 hora y 3 minutos, a las 13:00 UTC
Viento 10 kt del noreste
Temperatura 7°C
Humedad 57%
Presión 1030 hPa
Visibilidad: 8000 m
Nubes dispersas a una altura de 3000 ft
Nubes dispersas a una altura de 3300 ft

METAR: DAAY 031300Z 05010KT 8000 SCT030 SCT033 07/M01 Q1030

Hora: 15:03 (14:03 UTC)

Pronóstico

El informe se hizo hace 3 horas y 3 minutos, a las 11:00 UTC
Pronóstico válido del 03 a las 12 UTC al 03 a las 21 UTC
Viento 12 kt del norte-noreste con ráfagas de 22 kt
Visibilidad: 8000 m
Nubes dispersas a una altura de 1600 ft
Nubes dispersas a una altura de 3300 ft
Probabilidad 30% :
Temporalmente
del 03 a las 13 UTC al 03 a las 18 UTC
lluvia

TAF: DAAY 031100Z 0312/0321 03012G22KT 8000 SCT016 SCT033 PROB30 TEMPO 0313/0318 RA

Observaciones y pronósticos meteorológicos de más de 4000 aeropuertos (mensajes METAR y TAF).

Los puntos amarillos y rojos representan las estaciones disponibles.

Ponga el ratón en el punto deseado para ver el nombre de la estación.

Haga clic para ver las observaciones y los pronósticos meteorológicos.

Para cambiar el mapa : haga clic en los botones verdes con una cruz de color negro para hacer un zoom, en el botón verde con un guión para alejar o en las flechas verdes para mapas adyacentes.


METAR-TAF: